createdAt,value
2019-05-06T00:01:12.066Z,5.63
2019-05-06T00:03:39.734Z,7.33
2019-05-06T00:06:07.888Z,4.87
2019-05-06T00:08:37.405Z,4.70
2019-05-06T00:11:05.260Z,7.70
2019-05-06T00:13:34.325Z,6.70
2019-05-06T00:16:03.968Z,3.93
2019-05-06T00:18:33.946Z,7.13
2019-05-06T00:21:01.311Z,9.47
2019-05-06T00:23:35.352Z,6.00
2019-05-06T00:26:21.681Z,6.60
2019-05-06T00:28:53.873Z,5.43
2019-05-06T00:31:23.828Z,7.43
2019-05-06T00:33:51.422Z,6.87
2019-05-06T00:36:19.041Z,9.50
2019-05-06T00:38:49.796Z,6.40
2019-05-06T00:41:24.747Z,7.20
2019-05-06T00:43:54.434Z,7.40
2019-05-06T00:46:21.886Z,6.77
2019-05-06T00:48:49.541Z,8.37
2019-05-06T00:51:17.210Z,5.73
2019-05-06T00:53:49.301Z,9.17
2019-05-06T00:56:16.962Z,9.40
2019-05-06T00:58:44.632Z,6.87
2019-05-06T01:01:25.506Z,7.93
2019-05-06T01:03:41.912Z,6.20
2019-05-06T01:06:09.541Z,7.60
2019-05-06T01:08:37.206Z,6.37
2019-05-06T01:11:05.651Z,5.83
2019-05-06T01:13:43.705Z,5.90
2019-05-06T01:16:13.162Z,6.73
2019-05-06T01:18:40.834Z,9.83
2019-05-06T01:21:11.336Z,5.00
2019-05-06T01:23:43.366Z,6.73
2019-05-06T01:26:15.081Z,7.90
2019-05-06T01:28:44.462Z,7.03
2019-05-06T01:31:14.008Z,8.97
2019-05-06T01:33:45.087Z,6.73
2019-05-06T01:36:14.112Z,9.03
2019-05-06T01:38:59.971Z,6.83
2019-05-06T01:41:38.597Z,6.53
2019-05-06T01:44:06.266Z,7.63
2019-05-06T01:46:34.101Z,5.13
2019-05-06T01:49:01.814Z,5.40
2019-05-06T01:51:29.461Z,9.10
2019-05-06T01:53:57.109Z,8.87
2019-05-06T01:56:24.844Z,9.33
2019-05-06T01:58:53.638Z,9.00
2019-05-06T02:01:21.457Z,6.23
2019-05-06T02:03:49.120Z,7.47
2019-05-06T02:06:16.793Z,6.90
2019-05-06T02:08:44.976Z,7.10
2019-05-06T02:11:14.672Z,5.27
2019-05-06T02:13:44.234Z,6.60
2019-05-06T02:16:14.351Z,7.00
2019-05-06T02:18:41.633Z,6.73
2019-05-06T02:21:17.473Z,5.97
2019-05-06T02:23:49.665Z,6.67
2019-05-06T02:26:17.450Z,7.17
2019-05-06T02:28:47.725Z,7.23
2019-05-06T02:31:56.636Z,6.53
2019-05-06T02:34:28.514Z,9.07
2019-05-06T02:37:06.367Z,5.30
2019-05-06T02:39:34.158Z,5.20
2019-05-06T02:42:04.035Z,5.90
2019-05-06T02:44:33.631Z,6.77
2019-05-06T02:47:28.905Z,7.20
2019-05-06T02:49:59.926Z,6.47
2019-05-06T02:52:27.596Z,5.87
2019-05-06T02:54:55.273Z,8.30
2019-05-06T02:57:23.842Z,6.77
2019-05-06T02:59:54.826Z,7.27
2019-05-06T03:02:38.021Z,8.30
2019-05-06T03:04:52.838Z,6.03
2019-05-06T03:07:23.169Z,7.00
2019-05-06T03:09:52.918Z,7.27
2019-05-06T03:12:22.636Z,6.07
2019-05-06T03:14:49.114Z,7.37
2019-05-06T03:17:16.791Z,5.80
2019-05-06T03:19:46.237Z,7.57
2019-05-06T03:22:39.232Z,6.67
2019-05-06T03:25:18.398Z,9.17
2019-05-06T03:27:46.995Z,6.57
2019-05-06T03:30:17.069Z,9.67
2019-05-06T03:33:21.188Z,6.40
2019-05-06T03:35:33.298Z,7.90
2019-05-06T03:37:44.235Z,5.90
2019-05-06T03:40:13.898Z,7.27
2019-05-06T03:42:42.692Z,7.43
2019-05-06T03:45:23.698Z,8.13
2019-05-06T03:48:05.492Z,10.23
2019-05-06T03:50:30.037Z,9.40
2019-05-06T03:52:57.674Z,6.83
2019-05-06T03:55:26.142Z,10.27
2019-05-06T03:57:55.482Z,9.83
2019-05-06T04:00:23.836Z,8.23
2019-05-06T04:02:53.646Z,6.53
2019-05-06T04:05:23.779Z,6.70
2019-05-06T04:07:52.994Z,8.27
2019-05-06T04:10:22.871Z,7.53
2019-05-06T04:12:53.596Z,6.37
2019-05-06T04:15:22.962Z,5.77
2019-05-06T04:17:55.221Z,7.00
2019-05-06T04:20:43.580Z,8.40
2019-05-06T04:23:43.517Z,9.23
2019-05-06T04:26:14.794Z,8.90
2019-05-06T04:28:43.570Z,9.13
2019-05-06T04:31:13.244Z,9.40
2019-05-06T04:33:41.194Z,7.30
2019-05-06T04:36:08.827Z,7.30
2019-05-06T04:38:36.769Z,6.30
2019-05-06T04:41:04.586Z,9.27
2019-05-06T04:43:33.607Z,7.30
2019-05-06T04:46:03.264Z,8.53
2019-05-06T04:48:32.952Z,9.63
2019-05-06T04:51:03.337Z,8.20
2019-05-06T04:53:33.932Z,7.00
2019-05-06T04:56:04.023Z,7.40
2019-05-06T04:58:33.522Z,7.70
2019-05-06T05:01:04.132Z,8.40
2019-05-06T05:03:33.607Z,8.67
2019-05-06T05:06:05.014Z,6.93
2019-05-06T05:08:36.980Z,7.77
2019-05-06T05:11:42.519Z,7.50
2019-05-06T05:14:25.949Z,10.80
2019-05-06T05:16:58.349Z,10.10
2019-05-06T05:19:26.273Z,9.10
2019-05-06T05:22:04.907Z,9.50
2019-05-06T05:24:32.739Z,9.60
2019-05-06T05:27:03.037Z,11.70
2019-05-06T05:29:32.519Z,9.27
2019-05-06T05:32:02.094Z,10.40
2019-05-06T05:34:39.822Z,11.17
2019-05-06T05:37:03.046Z,12.43
2019-05-06T05:39:33.143Z,13.20
2019-05-06T05:42:08.810Z,12.20
2019-05-06T05:44:37.891Z,17.63
2019-05-06T05:47:05.505Z,15.53
2019-05-06T05:49:52.877Z,19.00
2019-05-06T05:52:22.239Z,18.07
2019-05-06T05:54:51.935Z,17.53
2019-05-06T05:57:19.641Z,18.03
2019-05-06T05:59:47.288Z,17.23
2019-05-06T06:02:14.945Z,18.33
2019-05-06T06:04:54.747Z,15.93
2019-05-06T06:07:15.260Z,19.73
2019-05-06T06:09:52.500Z,18.70
2019-05-06T06:12:20.241Z,20.37
2019-05-06T06:14:58.085Z,17.97
2019-05-06T06:17:45.373Z,16.80
2019-05-06T06:20:33.616Z,18.47
2019-05-06T06:23:07.122Z,14.80
2019-05-06T06:25:35.242Z,15.37
2019-05-06T06:28:03.133Z,19.77
2019-05-06T06:30:37.929Z,16.93
2019-05-06T06:33:05.645Z,19.27
2019-05-06T06:35:42.649Z,21.17
2019-05-06T06:38:15.432Z,19.23
2019-05-06T06:40:43.050Z,16.87
2019-05-06T06:43:15.738Z,18.10
2019-05-06T06:45:43.425Z,21.03
2019-05-06T06:48:12.340Z,16.03
2019-05-06T06:50:40.193Z,17.20
2019-05-06T06:53:08.021Z,15.97
2019-05-06T06:55:36.277Z,17.37
2019-05-06T06:58:11.992Z,22.37
2019-05-06T07:01:12.362Z,19.27
2019-05-06T07:03:44.987Z,20.33
2019-05-06T07:06:22.372Z,19.77
2019-05-06T07:08:51.794Z,15.37
2019-05-06T07:11:22.540Z,21.23
2019-05-06T07:13:54.680Z,20.03
2019-05-06T07:16:23.553Z,23.27
2019-05-06T07:18:52.634Z,16.10
2019-05-06T07:21:26.053Z,16.33
2019-05-06T07:23:53.713Z,20.10
2019-05-06T07:26:23.904Z,16.63
2019-05-06T07:28:52.677Z,17.90
2019-05-06T07:31:23.858Z,17.03
2019-05-06T07:33:52.088Z,16.60
2019-05-06T07:36:20.231Z,20.40
2019-05-06T07:38:52.803Z,22.90
2019-05-06T07:41:26.890Z,15.77
2019-05-06T07:44:26.217Z,19.27
2019-05-06T07:47:06.286Z,21.80
2019-05-06T07:49:33.989Z,18.93
2019-05-06T07:52:02.890Z,17.80
2019-05-06T07:54:32.839Z,13.00
2019-05-06T07:57:02.266Z,14.40
2019-05-06T07:59:30.038Z,14.97
2019-05-06T08:01:57.669Z,15.87
2019-05-06T08:04:25.354Z,18.67
2019-05-06T08:06:52.993Z,14.00
2019-05-06T08:09:22.123Z,16.83
2019-05-06T08:11:49.861Z,19.10
2019-05-06T08:14:17.528Z,17.27
2019-05-06T08:16:53.183Z,15.90
2019-05-06T08:19:22.759Z,17.23
2019-05-06T08:21:52.314Z,13.13
2019-05-06T08:24:19.961Z,12.23
2019-05-06T08:26:47.791Z,13.27
2019-05-06T08:29:16.039Z,11.67
2019-05-06T08:31:43.745Z,14.83
2019-05-06T08:34:12.292Z,15.03
2019-05-06T08:36:59.552Z,16.93
2019-05-06T08:39:27.385Z,15.87
2019-05-06T08:41:55.650Z,11.13
2019-05-06T08:44:23.261Z,13.20
2019-05-06T08:46:53.132Z,16.07
2019-05-06T08:49:22.430Z,14.07
2019-05-06T08:52:08.697Z,13.93
2019-05-06T08:54:43.378Z,17.37
2019-05-06T08:57:11.911Z,16.87
2019-05-06T08:59:39.624Z,12.00
2019-05-06T09:02:09.262Z,16.03
2019-05-06T09:04:37.027Z,15.93
2019-05-06T09:07:04.729Z,15.50
2019-05-06T09:09:32.648Z,12.30
2019-05-06T09:12:02.469Z,13.30
2019-05-06T09:14:32.434Z,13.53
2019-05-06T09:16:59.593Z,13.13
2019-05-06T09:19:27.251Z,15.63
2019-05-06T09:21:54.915Z,12.07
2019-05-06T09:24:23.185Z,12.83
2019-05-06T09:26:55.911Z,15.30
2019-05-06T09:29:32.380Z,13.37
2019-05-06T09:32:02.318Z,12.97
2019-05-06T09:34:35.955Z,11.67
2019-05-06T09:37:17.429Z,11.23
2019-05-06T09:39:45.504Z,19.50
2019-05-06T09:42:15.438Z,12.73
2019-05-06T09:44:43.794Z,15.77
2019-05-06T09:47:42.434Z,12.33
2019-05-06T09:50:13.031Z,11.87
2019-05-06T09:52:42.731Z,13.93
2019-05-06T09:55:22.042Z,10.90
2019-05-06T09:58:05.904Z,11.33
2019-05-06T10:00:37.152Z,9.60
2019-05-06T10:03:04.909Z,13.00
2019-05-06T10:05:32.596Z,9.10
2019-05-06T10:08:00.247Z,11.07
2019-05-06T10:10:27.894Z,11.57
2019-05-06T10:12:55.664Z,10.67
2019-05-06T10:15:23.681Z,8.90
2019-05-06T10:18:07.004Z,10.17
2019-05-06T10:20:42.600Z,11.60
2019-05-06T10:23:10.184Z,11.97
2019-05-06T10:25:38.174Z,11.90
2019-05-06T10:28:12.564Z,9.77
2019-05-06T10:30:40.383Z,11.93
2019-05-06T10:33:11.729Z,13.90
2019-05-06T10:35:39.425Z,10.70
2019-05-06T10:38:23.604Z,13.90
2019-05-06T10:41:03.590Z,11.67
2019-05-06T10:43:56.777Z,9.27
2019-05-06T10:46:24.423Z,11.47
2019-05-06T10:48:53.018Z,10.43
2019-05-06T10:51:26.354Z,8.97
2019-05-06T10:53:54.105Z,13.57
2019-05-06T10:56:50.783Z,10.07
2019-05-06T10:59:09.997Z,11.90
2019-05-06T11:01:42.655Z,15.80
2019-05-06T11:04:09.788Z,13.80
2019-05-06T11:06:38.390Z,10.27
2019-05-06T11:09:07.184Z,8.03
2019-05-06T11:11:38.728Z,9.70
2019-05-06T11:14:05.051Z,10.13
2019-05-06T11:16:33.344Z,10.93
2019-05-06T11:19:02.157Z,11.50
2019-05-06T11:21:32.701Z,12.57
2019-05-06T11:24:00.309Z,9.57
2019-05-06T11:26:27.969Z,10.20
2019-05-06T11:28:59.301Z,8.03
2019-05-06T11:31:36.556Z,6.77
2019-05-06T11:34:22.726Z,8.23
2019-05-06T11:37:14.975Z,11.47
2019-05-06T11:39:43.044Z,8.47
2019-05-06T11:42:24.972Z,8.43
2019-05-06T11:44:43.759Z,9.10
2019-05-06T11:47:12.453Z,10.13
2019-05-06T11:49:39.562Z,8.67
2019-05-06T11:52:07.316Z,8.77
2019-05-06T11:54:35.053Z,8.27
2019-05-06T11:57:05.648Z,9.43
2019-05-06T11:59:33.293Z,9.90
2019-05-06T12:02:03.308Z,8.50
2019-05-06T12:04:32.855Z,6.90
2019-05-06T12:07:10.368Z,6.37
2019-05-06T12:09:32.815Z,6.00
2019-05-06T12:11:59.674Z,6.30
2019-05-06T12:14:28.320Z,7.07
2019-05-06T12:16:55.966Z,7.17
2019-05-06T12:19:23.630Z,4.97
2019-05-06T12:21:51.405Z,6.27
2019-05-06T12:24:19.063Z,9.63
2019-05-06T12:26:46.722Z,5.37
2019-05-06T12:29:14.437Z,7.07
2019-05-06T12:31:42.464Z,7.43
2019-05-06T12:34:12.412Z,11.13
2019-05-06T12:36:39.794Z,7.40
2019-05-06T12:39:19.617Z,5.83
2019-05-06T12:42:05.033Z,5.83
2019-05-06T12:44:34.001Z,9.20
2019-05-06T12:47:19.867Z,8.67
2019-05-06T12:49:47.546Z,10.20
2019-05-06T12:52:15.235Z,7.27
2019-05-06T12:54:43.164Z,5.53
2019-05-06T12:57:12.602Z,6.97
2019-05-06T12:59:42.347Z,7.90
2019-05-06T13:02:10.043Z,6.27
2019-05-06T13:04:51.363Z,6.23
2019-05-06T13:07:09.068Z,6.20
2019-05-06T13:09:36.851Z,5.83
2019-05-06T13:12:05.394Z,7.03
2019-05-06T13:14:33.293Z,8.53
2019-05-06T13:17:02.706Z,7.87
2019-05-06T13:19:32.255Z,7.87
2019-05-06T13:22:03.245Z,9.30
2019-05-06T13:24:29.659Z,5.30
2019-05-06T13:26:59.054Z,8.10
2019-05-06T13:29:29.072Z,6.93
2019-05-06T13:31:56.693Z,6.50
2019-05-06T13:34:24.482Z,9.53
2019-05-06T13:36:53.321Z,8.23
2019-05-06T13:39:23.740Z,7.70
2019-05-06T13:41:52.866Z,8.67
2019-05-06T13:44:22.847Z,6.33
2019-05-06T13:46:53.447Z,12.53
2019-05-06T13:49:42.807Z,9.70
2019-05-06T13:52:16.002Z,9.27
2019-05-06T13:54:43.709Z,6.00
2019-05-06T13:57:12.466Z,6.73
2019-05-06T13:59:43.670Z,7.23
2019-05-06T14:02:35.499Z,8.00
2019-05-06T14:05:04.298Z,6.83
2019-05-06T14:07:34.419Z,8.10
2019-05-06T14:10:02.701Z,5.00
2019-05-06T14:12:33.145Z,7.07
2019-05-06T14:15:04.326Z,7.40
2019-05-06T14:17:32.786Z,9.43
2019-05-06T14:20:02.638Z,8.40
2019-05-06T14:22:32.449Z,10.97
2019-05-06T14:25:19.413Z,7.40
2019-05-06T14:27:52.441Z,7.30
2019-05-06T14:30:39.214Z,8.47
2019-05-06T14:33:07.001Z,5.97
2019-05-06T14:35:34.665Z,6.93
2019-05-06T14:38:03.285Z,10.20
2019-05-06T14:40:33.581Z,6.50
2019-05-06T14:43:02.278Z,8.00
2019-05-06T14:45:33.130Z,10.50
2019-05-06T14:48:00.888Z,5.90
2019-05-06T14:50:43.042Z,7.67
2019-05-06T14:52:59.209Z,6.70
2019-05-06T14:55:32.615Z,7.00
2019-05-06T14:58:00.022Z,6.17
2019-05-06T15:00:27.694Z,7.63
2019-05-06T15:02:55.313Z,7.67
2019-05-06T15:05:22.998Z,6.53
2019-05-06T15:07:52.691Z,6.67
2019-05-06T15:10:25.495Z,8.50
2019-05-06T15:12:49.911Z,6.90
2019-05-06T15:15:17.638Z,8.07
2019-05-06T15:17:45.262Z,5.33
2019-05-06T15:20:14.200Z,8.00
2019-05-06T15:22:42.146Z,7.73
2019-05-06T15:25:09.909Z,7.80
2019-05-06T15:27:37.577Z,7.40
2019-05-06T15:30:08.541Z,9.27
2019-05-06T15:32:37.517Z,9.80
2019-05-06T15:35:34.924Z,6.43
2019-05-06T15:38:06.758Z,9.03
2019-05-06T15:40:36.754Z,5.97
2019-05-06T15:43:03.953Z,7.27
2019-05-06T15:45:32.464Z,6.90
2019-05-06T15:48:02.522Z,7.00
2019-05-06T15:50:32.226Z,7.60
2019-05-06T15:53:01.723Z,6.93
2019-05-06T15:55:29.017Z,7.20
2019-05-06T15:57:56.668Z,6.73
2019-05-06T16:00:24.371Z,4.97
2019-05-06T16:02:53.073Z,9.07
2019-05-06T16:05:26.205Z,7.20
2019-05-06T16:07:52.951Z,5.77
2019-05-06T16:10:22.589Z,8.27
2019-05-06T16:12:50.045Z,5.40
2019-05-06T16:15:17.705Z,7.57
2019-05-06T16:17:45.667Z,6.13
2019-05-06T16:20:13.361Z,5.97
2019-05-06T16:22:44.197Z,7.20
2019-05-06T16:25:13.289Z,7.17
2019-05-06T16:27:43.880Z,5.93
2019-05-06T16:30:13.209Z,4.50
2019-05-06T16:32:41.952Z,7.33
2019-05-06T16:35:11.964Z,6.77
2019-05-06T16:37:39.655Z,7.40
2019-05-06T16:40:07.702Z,9.40
2019-05-06T16:42:35.564Z,6.30
2019-05-06T16:45:06.846Z,5.67
2019-05-06T16:47:36.247Z,4.40
2019-05-06T16:50:05.920Z,6.23
2019-05-06T16:52:33.821Z,5.77
2019-05-06T16:55:03.206Z,7.50
2019-05-06T16:57:33.220Z,7.60
2019-05-06T17:00:02.874Z,7.77
2019-05-06T17:02:41.979Z,9.83
2019-05-06T17:05:28.615Z,6.90
2019-05-06T17:07:59.307Z,4.77
2019-05-06T17:10:26.875Z,5.63
2019-05-06T17:12:54.564Z,5.40
2019-05-06T17:15:22.995Z,6.50
2019-05-06T17:17:52.961Z,7.27
2019-05-06T17:20:22.771Z,5.53
2019-05-06T17:22:53.004Z,13.87
2019-05-06T17:25:22.320Z,7.47
2019-05-06T17:27:50.136Z,5.83
2019-05-06T17:30:40.656Z,6.20
2019-05-06T17:33:28.942Z,4.60
2019-05-06T17:35:56.584Z,4.70
2019-05-06T17:38:32.050Z,5.27
2019-05-06T17:40:59.293Z,5.57
2019-05-06T17:43:27.041Z,6.33
2019-05-06T17:46:02.277Z,4.80
2019-05-06T17:48:49.315Z,4.70
2019-05-06T17:51:18.820Z,3.83
2019-05-06T17:53:48.963Z,6.67
2019-05-06T17:56:16.619Z,5.83
2019-05-06T17:58:44.291Z,5.20
2019-05-06T18:01:13.353Z,5.13
2019-05-06T18:03:41.111Z,5.57
2019-05-06T18:06:13.997Z,4.63
2019-05-06T18:08:39.420Z,5.93
2019-05-06T18:11:07.100Z,5.43
2019-05-06T18:13:34.757Z,4.03
2019-05-06T18:16:03.630Z,4.37
2019-05-06T18:18:31.397Z,4.83
2019-05-06T18:20:59.190Z,3.90
2019-05-06T18:23:26.833Z,6.27
2019-05-06T18:25:54.493Z,7.83
2019-05-06T18:28:22.768Z,7.57
2019-05-06T18:30:52.109Z,7.50
2019-05-06T18:33:19.921Z,6.17
2019-05-06T18:35:47.728Z,4.40
2019-05-06T18:38:15.398Z,5.87
2019-05-06T18:40:43.050Z,7.23
2019-05-06T18:43:12.750Z,7.53
2019-05-06T18:45:41.909Z,4.53
2019-05-06T18:48:10.720Z,7.03
2019-05-06T18:50:38.402Z,6.23
2019-05-06T18:53:07.074Z,5.27
2019-05-06T18:55:34.750Z,4.47
2019-05-06T18:58:02.450Z,7.70
2019-05-06T19:00:31.958Z,4.57
2019-05-06T19:02:59.651Z,5.70
2019-05-06T19:05:33.006Z,4.63
2019-05-06T19:08:03.339Z,6.00
2019-05-06T19:10:33.232Z,4.53
2019-05-06T19:13:02.013Z,5.20
2019-05-06T19:15:32.427Z,3.43
2019-05-06T19:18:02.288Z,4.63
2019-05-06T19:20:30.038Z,5.13
2019-05-06T19:22:57.720Z,4.60
2019-05-06T19:25:26.691Z,3.10
2019-05-06T19:27:54.609Z,4.50
2019-05-06T19:30:22.591Z,5.63
2019-05-06T19:32:50.531Z,3.27
2019-05-06T19:35:18.202Z,3.77
2019-05-06T19:37:45.953Z,4.90
2019-05-06T19:40:13.817Z,5.43
2019-05-06T19:42:47.127Z,4.23
2019-05-06T19:45:12.938Z,3.43
2019-05-06T19:47:42.549Z,4.77
2019-05-06T19:50:10.533Z,6.47
2019-05-06T19:52:38.182Z,4.13
2019-05-06T19:55:06.282Z,4.97
2019-05-06T19:57:33.958Z,5.60
2019-05-06T20:00:03.265Z,5.90
2019-05-06T20:02:33.100Z,4.47
2019-05-06T20:05:05.480Z,5.63
2019-05-06T20:08:02.884Z,5.27
2019-05-06T20:10:56.281Z,4.67
2019-05-06T20:13:24.020Z,4.97
2019-05-06T20:15:52.179Z,4.20
2019-05-06T20:18:19.878Z,4.23
2019-05-06T20:20:47.567Z,4.07
2019-05-06T20:23:15.217Z,4.80
2019-05-06T20:25:44.956Z,5.27
2019-05-06T20:28:13.144Z,6.67
2019-05-06T20:30:42.241Z,7.17
2019-05-06T20:33:12.281Z,6.47
2019-05-06T20:35:39.854Z,6.80
2019-05-06T20:38:07.586Z,4.70
2019-05-06T20:40:35.233Z,5.30
2019-05-06T20:43:16.584Z,11.77
2019-05-06T20:45:35.356Z,6.90
2019-05-06T20:48:03.224Z,6.57
2019-05-06T20:50:32.168Z,4.33
2019-05-06T20:53:01.165Z,4.77
2019-05-06T20:55:32.403Z,4.33
2019-05-06T20:57:58.546Z,7.23
2019-05-06T21:00:26.199Z,6.03
2019-05-06T21:02:53.918Z,5.20
2019-05-06T21:05:22.812Z,4.37
2019-05-06T21:07:52.640Z,6.37
2019-05-06T21:10:22.063Z,5.93
2019-05-06T21:12:49.679Z,7.53
2019-05-06T21:15:17.401Z,6.30
2019-05-06T21:17:45.137Z,5.73
2019-05-06T21:20:14.159Z,5.03
2019-05-06T21:22:42.955Z,6.17
2019-05-06T21:25:12.857Z,6.23
2019-05-06T21:27:42.260Z,5.80
2019-05-06T21:30:13.193Z,6.20
2019-05-06T21:32:42.709Z,6.30
2019-05-06T21:35:12.652Z,6.23
2019-05-06T21:37:42.300Z,5.00
2019-05-06T21:40:12.294Z,4.87
2019-05-06T21:42:40.107Z,8.87
2019-05-06T21:45:07.865Z,4.30
2019-05-06T21:47:35.539Z,5.77
2019-05-06T21:50:03.399Z,6.47
2019-05-06T21:52:38.811Z,7.70
2019-05-06T21:55:02.547Z,5.80
2019-05-06T21:57:30.345Z,6.97
2019-05-06T21:59:57.973Z,6.57
2019-05-06T22:02:25.613Z,5.47
2019-05-06T22:04:55.607Z,5.57
2019-05-06T22:07:22.975Z,5.53
2019-05-06T22:09:52.633Z,6.37
2019-05-06T22:12:20.255Z,7.10
2019-05-06T22:14:47.877Z,6.83
2019-05-06T22:17:15.522Z,7.53
2019-05-06T22:19:43.141Z,4.23
2019-05-06T22:22:14.475Z,8.63
2019-05-06T22:24:55.206Z,6.17
2019-05-06T22:27:21.967Z,5.50
2019-05-06T22:29:52.064Z,7.87
2019-05-06T22:32:19.464Z,6.13
2019-05-06T22:34:47.074Z,5.70
2019-05-06T22:37:14.756Z,6.53
2019-05-06T22:39:43.495Z,6.43
2019-05-06T22:42:11.530Z,7.37
2019-05-06T22:44:39.191Z,8.03
2019-05-06T22:47:06.821Z,8.07
2019-05-06T22:49:34.538Z,6.97
2019-05-06T22:52:02.972Z,7.53
2019-05-06T22:54:32.004Z,6.93
2019-05-06T22:56:59.798Z,6.77
2019-05-06T22:59:28.453Z,6.20
2019-05-06T23:02:18.407Z,6.50
2019-05-06T23:04:48.277Z,8.87
2019-05-06T23:07:15.948Z,7.43
2019-05-06T23:09:43.761Z,8.00
2019-05-06T23:12:12.363Z,6.97
2019-05-06T23:14:42.025Z,7.13
2019-05-06T23:17:09.715Z,6.13
2019-05-06T23:19:37.353Z,6.37
2019-05-06T23:22:05.070Z,7.13
2019-05-06T23:24:32.728Z,6.37
2019-05-06T23:27:02.342Z,8.40
2019-05-06T23:29:30.001Z,6.63
2019-05-06T23:31:57.719Z,6.60
2019-05-06T23:34:25.370Z,10.93
2019-05-06T23:37:23.161Z,6.67
2019-05-06T23:40:33.537Z,6.17
2019-05-06T23:43:37.072Z,6.30
2019-05-06T23:46:41.207Z,6.37
2019-05-06T23:49:44.809Z,6.17
2019-05-06T23:52:48.524Z,7.53
2019-05-06T23:55:52.349Z,5.53
2019-05-06T23:58:19.015Z,5.87
